sensor_id;sensor_type;location;lat;lon;timestamp;P1;durP1;ratioP1;P2;durP2;ratioP2
53401;SDS011;39295;45.534;20.034;2023-02-01T00:01:17;25.55;;;12.50;;
53401;SDS011;39295;45.534;20.034;2023-02-01T00:03:44;27.40;;;13.55;;
53401;SDS011;39295;45.534;20.034;2023-02-01T00:06:10;28.13;;;14.80;;
53401;SDS011;39295;45.534;20.034;2023-02-01T00:08:36;28.13;;;15.60;;
53401;SDS011;39295;45.534;20.034;2023-02-01T00:11:06;27.17;;;14.05;;
53401;SDS011;39295;45.534;20.034;2023-02-01T00:13:34;28.88;;;13.88;;
53401;SDS011;39295;45.534;20.034;2023-02-01T00:16:06;24.88;;;14.27;;
53401;SDS011;39295;45.534;20.034;2023-02-01T00:18:33;25.65;;;12.82;;
53401;SDS011;39295;45.534;20.034;2023-02-01T00:21:00;32.08;;;15.10;;
53401;SDS011;39295;45.534;20.034;2023-02-01T00:23:27;28.13;;;13.88;;
53401;SDS011;39295;45.534;20.034;2023-02-01T00:25:53;25.50;;;13.55;;
53401;SDS011;39295;45.534;20.034;2023-02-01T00:28:19;23.73;;;12.80;;
53401;SDS011;39295;45.534;20.034;2023-02-01T00:30:45;28.52;;;14.07;;
53401;SDS011;39295;45.534;20.034;2023-02-01T00:33:11;29.05;;;14.27;;
53401;SDS011;39295;45.534;20.034;2023-02-01T00:35:37;29.20;;;13.70;;
53401;SDS011;39295;45.534;20.034;2023-02-01T00:38:04;25.40;;;13.25;;
53401;SDS011;39295;45.534;20.034;2023-02-01T00:40:30;29.98;;;13.65;;
53401;SDS011;39295;45.534;20.034;2023-02-01T00:42:56;25.27;;;12.90;;
53401;SDS011;39295;45.534;20.034;2023-02-01T00:45:22;27.00;;;12.90;;
53401;SDS011;39295;45.534;20.034;2023-02-01T00:47:48;23.05;;;13.52;;
53401;SDS011;39295;45.534;20.034;2023-02-01T00:50:15;25.10;;;12.10;;
53401;SDS011;39295;45.534;20.034;2023-02-01T00:52:46;24.80;;;12.60;;
53401;SDS011;39295;45.534;20.034;2023-02-01T00:55:12;23.08;;;12.30;;
53401;SDS011;39295;45.534;20.034;2023-02-01T00:57:38;26.00;;;13.48;;
53401;SDS011;39295;45.534;20.034;2023-02-01T01:00:05;22.83;;;13.02;;
53401;SDS011;39295;45.534;20.034;2023-02-01T01:02:31;25.08;;;12.13;;
53401;SDS011;39295;45.534;20.034;2023-02-01T01:04:57;24.95;;;13.20;;
53401;SDS011;39295;45.534;20.034;2023-02-01T01:07:23;30.83;;;15.13;;
53401;SDS011;39295;45.534;20.034;2023-02-01T01:12:52;26.40;;;14.57;;
53401;SDS011;39295;45.534;20.034;2023-02-01T01:15:18;25.77;;;14.50;;
53401;SDS011;39295;45.534;20.034;2023-02-01T01:17:45;26.30;;;14.00;;
53401;SDS011;39295;45.534;20.034;2023-02-01T01:20:11;21.13;;;11.80;;
53401;SDS011;39295;45.534;20.034;2023-02-01T01:22:37;17.63;;;10.00;;
53401;SDS011;39295;45.534;20.034;2023-02-01T01:25:03;20.10;;;11.13;;
53401;SDS011;39295;45.534;20.034;2023-02-01T01:27:29;20.13;;;10.05;;
53401;SDS011;39295;45.534;20.034;2023-02-01T01:29:55;20.45;;;9.52;;
53401;SDS011;39295;45.534;20.034;2023-02-01T01:32:22;18.88;;;10.23;;
53401;SDS011;39295;45.534;20.034;2023-02-01T01:34:48;20.17;;;10.32;;
53401;SDS011;39295;45.534;20.034;2023-02-01T01:37:14;18.02;;;9.18;;
53401;SDS011;39295;45.534;20.034;2023-02-01T01:39:40;18.50;;;8.63;;
53401;SDS011;39295;45.534;20.034;2023-02-01T01:42:08;19.33;;;8.70;;
53401;SDS011;39295;45.534;20.034;2023-02-01T01:44:55;14.32;;;8.27;;
53401;SDS011;39295;45.534;20.034;2023-02-01T01:47:22;14.57;;;7.85;;
53401;SDS011;39295;45.534;20.034;2023-02-01T01:49:49;17.73;;;8.70;;
53401;SDS011;39295;45.534;20.034;2023-02-01T01:52:15;16.58;;;8.20;;
53401;SDS011;39295;45.534;20.034;2023-02-01T01:54:47;16.33;;;8.73;;
53401;SDS011;39295;45.534;20.034;2023-02-01T01:57:16;14.82;;;8.07;;
53401;SDS011;39295;45.534;20.034;2023-02-01T01:59:43;15.70;;;7.93;;
53401;SDS011;39295;45.534;20.034;2023-02-01T02:02:11;14.57;;;8.25;;
53401;SDS011;39295;45.534;20.034;2023-02-01T02:04:37;17.73;;;8.35;;
53401;SDS011;39295;45.534;20.034;2023-02-01T02:07:05;16.23;;;7.35;;
53401;SDS011;39295;45.534;20.034;2023-02-01T02:09:33;15.88;;;8.82;;
53401;SDS011;39295;45.534;20.034;2023-02-01T02:11:59;21.65;;;9.63;;
53401;SDS011;39295;45.534;20.034;2023-02-01T02:14:25;15.30;;;7.40;;
53401;SDS011;39295;45.534;20.034;2023-02-01T02:28:04;15.70;;;8.55;;
53401;SDS011;39295;45.534;20.034;2023-02-01T02:30:42;17.85;;;8.13;;
53401;SDS011;39295;45.534;20.034;2023-02-01T02:47:17;14.82;;;8.98;;
53401;SDS011;39295;45.534;20.034;2023-02-01T02:49:51;15.52;;;8.82;;
53401;SDS011;39295;45.534;20.034;2023-02-01T02:52:39;17.33;;;8.68;;
53401;SDS011;39295;45.534;20.034;2023-02-01T02:55:26;19.88;;;10.57;;
53401;SDS011;39295;45.534;20.034;2023-02-01T02:57:52;17.58;;;9.30;;
53401;SDS011;39295;45.534;20.034;2023-02-01T03:00:37;18.25;;;10.32;;
53401;SDS011;39295;45.534;20.034;2023-02-01T03:03:22;20.30;;;11.05;;
53401;SDS011;39295;45.534;20.034;2023-02-01T03:06:14;23.05;;;11.18;;
53401;SDS011;39295;45.534;20.034;2023-02-01T03:11:44;20.00;;;10.50;;
53401;SDS011;39295;45.534;20.034;2023-02-01T03:14:29;20.10;;;11.55;;
53401;SDS011;39295;45.534;20.034;2023-02-01T03:17:01;19.48;;;11.10;;
53401;SDS011;39295;45.534;20.034;2023-02-01T03:19:37;17.13;;;9.95;;
53401;SDS011;39295;45.534;20.034;2023-02-01T03:22:09;19.65;;;10.40;;
53401;SDS011;39295;45.534;20.034;2023-02-01T03:24:55;19.90;;;10.15;;
53401;SDS011;39295;45.534;20.034;2023-02-01T03:27:30;19.63;;;9.95;;
53401;SDS011;39295;45.534;20.034;2023-02-01T03:30:04;21.75;;;10.23;;
53401;SDS011;39295;45.534;20.034;2023-02-01T03:32:32;16.67;;;9.73;;
53401;SDS011;39295;45.534;20.034;2023-02-01T03:35:18;18.65;;;10.57;;
53401;SDS011;39295;45.534;20.034;2023-02-01T03:37:46;18.80;;;9.77;;
53401;SDS011;39295;45.534;20.034;2023-02-01T03:40:13;19.52;;;9.82;;
53401;SDS011;39295;45.534;20.034;2023-02-01T03:42:43;22.08;;;10.57;;
53401;SDS011;39295;45.534;20.034;2023-02-01T03:47:40;17.17;;;9.32;;
53401;SDS011;39295;45.534;20.034;2023-02-01T03:50:08;20.35;;;10.05;;
53401;SDS011;39295;45.534;20.034;2023-02-01T03:52:39;24.02;;;11.55;;
53401;SDS011;39295;45.534;20.034;2023-02-01T03:55:07;26.05;;;10.38;;
53401;SDS011;39295;45.534;20.034;2023-02-01T03:57:35;19.48;;;9.02;;
53401;SDS011;39295;45.534;20.034;2023-02-01T04:00:07;20.13;;;9.27;;
53401;SDS011;39295;45.534;20.034;2023-02-01T04:02:35;21.38;;;10.10;;
53401;SDS011;39295;45.534;20.034;2023-02-01T04:05:01;18.98;;;10.23;;
53401;SDS011;39295;45.534;20.034;2023-02-01T04:07:27;20.33;;;9.95;;
53401;SDS011;39295;45.534;20.034;2023-02-01T04:12:56;16.52;;;9.43;;
53401;SDS011;39295;45.534;20.034;2023-02-01T04:15:22;17.08;;;9.45;;
53401;SDS011;39295;45.534;20.034;2023-02-01T04:17:48;17.05;;;8.77;;
53401;SDS011;39295;45.534;20.034;2023-02-01T04:20:15;21.08;;;10.63;;
53401;SDS011;39295;45.534;20.034;2023-02-01T04:22:41;18.15;;;10.27;;
53401;SDS011;39295;45.534;20.034;2023-02-01T04:25:07;19.58;;;11.00;;
53401;SDS011;39295;45.534;20.034;2023-02-01T04:27:34;28.25;;;14.13;;
53401;SDS011;39295;45.534;20.034;2023-02-01T04:30:00;32.38;;;14.52;;
53401;SDS011;39295;45.534;20.034;2023-02-01T04:32:26;35.53;;;14.88;;
53401;SDS011;39295;45.534;20.034;2023-02-01T04:34:52;34.85;;;14.85;;
53401;SDS011;39295;45.534;20.034;2023-02-01T04:37:18;43.83;;;18.33;;
53401;SDS011;39295;45.534;20.034;2023-02-01T04:39:44;38.85;;;17.75;;
53401;SDS011;39295;45.534;20.034;2023-02-01T04:42:10;27.90;;;14.63;;
53401;SDS011;39295;45.534;20.034;2023-02-01T04:44:36;26.38;;;13.02;;
53401;SDS011;39295;45.534;20.034;2023-02-01T04:47:04;22.50;;;11.60;;
53401;SDS011;39295;45.534;20.034;2023-02-01T04:49:30;24.55;;;10.65;;
53401;SDS011;39295;45.534;20.034;2023-02-01T04:51:56;27.77;;;13.02;;
53401;SDS011;39295;45.534;20.034;2023-02-01T04:54:22;26.92;;;12.32;;
53401;SDS011;39295;45.534;20.034;2023-02-01T04:56:48;22.98;;;11.00;;
53401;SDS011;39295;45.534;20.034;2023-02-01T04:59:14;22.77;;;11.10;;
53401;SDS011;39295;45.534;20.034;2023-02-01T05:01:40;20.23;;;9.35;;
53401;SDS011;39295;45.534;20.034;2023-02-01T05:04:06;20.17;;;10.02;;
53401;SDS011;39295;45.534;20.034;2023-02-01T05:06:33;15.15;;;8.65;;
53401;SDS011;39295;45.534;20.034;2023-02-01T05:08:59;20.42;;;11.35;;
53401;SDS011;39295;45.534;20.034;2023-02-01T05:11:25;23.48;;;12.77;;
53401;SDS011;39295;45.534;20.034;2023-02-01T05:14:09;22.58;;;11.90;;
53401;SDS011;39295;45.534;20.034;2023-02-01T05:16:36;16.70;;;9.70;;
53401;SDS011;39295;45.534;20.034;2023-02-01T05:19:02;19.45;;;9.55;;
53401;SDS011;39295;45.534;20.034;2023-02-01T05:21:28;17.45;;;9.73;;
53401;SDS011;39295;45.534;20.034;2023-02-01T05:23:54;17.15;;;9.93;;
53401;SDS011;39295;45.534;20.034;2023-02-01T05:26:37;18.65;;;10.20;;
53401;SDS011;39295;45.534;20.034;2023-02-01T05:29:04;23.48;;;13.02;;
53401;SDS011;39295;45.534;20.034;2023-02-01T05:31:30;28.63;;;15.23;;
53401;SDS011;39295;45.534;20.034;2023-02-01T05:33:56;29.15;;;14.18;;
53401;SDS011;39295;45.534;20.034;2023-02-01T05:36:22;32.80;;;15.68;;
53401;SDS011;39295;45.534;20.034;2023-02-01T05:38:48;26.50;;;13.32;;
53401;SDS011;39295;45.534;20.034;2023-02-01T05:41:14;19.00;;;10.73;;
53401;SDS011;39295;45.534;20.034;2023-02-01T05:43:40;25.00;;;11.40;;
53401;SDS011;39295;45.534;20.034;2023-02-01T05:46:07;21.35;;;12.63;;
53401;SDS011;39295;45.534;20.034;2023-02-01T05:48:35;25.02;;;11.48;;
53401;SDS011;39295;45.534;20.034;2023-02-01T05:51:01;20.83;;;11.23;;
53401;SDS011;39295;45.534;20.034;2023-02-01T05:53:27;37.00;;;16.48;;
53401;SDS011;39295;45.534;20.034;2023-02-01T05:55:55;75.75;;;23.50;;
53401;SDS011;39295;45.534;20.034;2023-02-01T05:58:21;60.97;;;19.85;;
53401;SDS011;39295;45.534;20.034;2023-02-01T06:00:47;35.80;;;15.85;;
53401;SDS011;39295;45.534;20.034;2023-02-01T06:03:13;46.95;;;17.20;;
53401;SDS011;39295;45.534;20.034;2023-02-01T06:05:39;69.05;;;21.00;;
53401;SDS011;39295;45.534;20.034;2023-02-01T06:11:08;71.43;;;19.63;;
53401;SDS011;39295;45.534;20.034;2023-02-01T06:13:35;50.47;;;19.50;;
53401;SDS011;39295;45.534;20.034;2023-02-01T06:16:03;42.20;;;19.75;;
53401;SDS011;39295;45.534;20.034;2023-02-01T06:18:31;29.60;;;15.77;;
53401;SDS011;39295;45.534;20.034;2023-02-01T06:20:58;29.90;;;15.98;;
53401;SDS011;39295;45.534;20.034;2023-02-01T06:23:27;31.65;;;15.48;;
53401;SDS011;39295;45.534;20.034;2023-02-01T06:26:06;30.95;;;14.65;;
53401;SDS011;39295;45.534;20.034;2023-02-01T06:28:33;26.85;;;14.60;;
53401;SDS011;39295;45.534;20.034;2023-02-01T06:31:05;38.13;;;19.40;;
53401;SDS011;39295;45.534;20.034;2023-02-01T06:33:35;49.22;;;26.40;;
53401;SDS011;39295;45.534;20.034;2023-02-01T06:36:01;57.33;;;28.23;;
53401;SDS011;39295;45.534;20.034;2023-02-01T06:38:28;42.53;;;21.48;;
53401;SDS011;39295;45.534;20.034;2023-02-01T06:40:55;43.03;;;23.50;;
53401;SDS011;39295;45.534;20.034;2023-02-01T06:43:21;39.15;;;22.25;;
53401;SDS011;39295;45.534;20.034;2023-02-01T06:45:47;36.25;;;17.73;;
53401;SDS011;39295;45.534;20.034;2023-02-01T06:48:13;43.55;;;21.10;;
53401;SDS011;39295;45.534;20.034;2023-02-01T06:50:39;81.20;;;32.10;;
53401;SDS011;39295;45.534;20.034;2023-02-01T06:53:06;89.22;;;34.28;;
53401;SDS011;39295;45.534;20.034;2023-02-01T06:55:32;68.85;;;28.98;;
53401;SDS011;39295;45.534;20.034;2023-02-01T06:57:58;59.22;;;26.40;;
53401;SDS011;39295;45.534;20.034;2023-02-01T07:00:24;48.00;;;26.83;;
53401;SDS011;39295;45.534;20.034;2023-02-01T07:02:51;55.63;;;32.03;;
53401;SDS011;39295;45.534;20.034;2023-02-01T07:05:19;98.28;;;45.03;;
53401;SDS011;39295;45.534;20.034;2023-02-01T07:07:46;136.20;;;55.03;;
53401;SDS011;39295;45.534;20.034;2023-02-01T07:10:12;104.28;;;52.47;;
53401;SDS011;39295;45.534;20.034;2023-02-01T07:12:38;46.38;;;30.88;;
53401;SDS011;39295;45.534;20.034;2023-02-01T07:15:05;54.50;;;27.13;;
53401;SDS011;39295;45.534;20.034;2023-02-01T07:17:31;48.75;;;23.38;;
53401;SDS011;39295;45.534;20.034;2023-02-01T07:19:57;65.90;;;22.02;;
53401;SDS011;39295;45.534;20.034;2023-02-01T07:22:26;63.55;;;19.98;;
53401;SDS011;39295;45.534;20.034;2023-02-01T07:24:52;73.03;;;24.58;;
53401;SDS011;39295;45.534;20.034;2023-02-01T07:27:18;104.95;;;30.95;;
53401;SDS011;39295;45.534;20.034;2023-02-01T07:29:45;78.53;;;27.70;;
53401;SDS011;39295;45.534;20.034;2023-02-01T07:32:11;46.42;;;22.48;;
53401;SDS011;39295;45.534;20.034;2023-02-01T07:34:37;44.05;;;19.48;;
53401;SDS011;39295;45.534;20.034;2023-02-01T07:37:03;33.95;;;15.30;;
53401;SDS011;39295;45.534;20.034;2023-02-01T07:39:29;86.63;;;26.00;;
53401;SDS011;39295;45.534;20.034;2023-02-01T07:41:57;52.22;;;20.65;;
53401;SDS011;39295;45.534;20.034;2023-02-01T07:44:23;34.13;;;16.42;;
53401;SDS011;39295;45.534;20.034;2023-02-01T07:46:49;27.25;;;13.50;;
53401;SDS011;39295;45.534;20.034;2023-02-01T07:49:15;28.92;;;14.68;;
53401;SDS011;39295;45.534;20.034;2023-02-01T07:51:42;26.75;;;14.15;;
53401;SDS011;39295;45.534;20.034;2023-02-01T07:54:09;22.55;;;12.30;;
53401;SDS011;39295;45.534;20.034;2023-02-01T07:56:35;23.27;;;12.40;;
53401;SDS011;39295;45.534;20.034;2023-02-01T07:59:01;24.35;;;12.13;;
53401;SDS011;39295;45.534;20.034;2023-02-01T08:01:28;38.88;;;15.32;;
53401;SDS011;39295;45.534;20.034;2023-02-01T08:03:57;35.38;;;14.73;;
53401;SDS011;39295;45.534;20.034;2023-02-01T08:06:27;53.03;;;19.88;;
53401;SDS011;39295;45.534;20.034;2023-02-01T08:08:54;49.10;;;18.58;;
53401;SDS011;39295;45.534;20.034;2023-02-01T08:11:20;47.97;;;16.98;;
53401;SDS011;39295;45.534;20.034;2023-02-01T08:13:47;49.72;;;16.45;;
53401;SDS011;39295;45.534;20.034;2023-02-01T08:16:14;33.40;;;15.10;;
53401;SDS011;39295;45.534;20.034;2023-02-01T08:18:40;33.42;;;17.55;;
53401;SDS011;39295;45.534;20.034;2023-02-01T08:21:08;21.83;;;12.07;;
53401;SDS011;39295;45.534;20.034;2023-02-01T08:23:35;23.35;;;11.27;;
53401;SDS011;39295;45.534;20.034;2023-02-01T08:26:06;20.90;;;11.52;;
53401;SDS011;39295;45.534;20.034;2023-02-01T08:28:33;19.20;;;10.07;;
53401;SDS011;39295;45.534;20.034;2023-02-01T08:30:59;18.83;;;10.35;;
53401;SDS011;39295;45.534;20.034;2023-02-01T08:33:29;18.40;;;9.50;;
53401;SDS011;39295;45.534;20.034;2023-02-01T08:35:55;20.77;;;12.43;;
53401;SDS011;39295;45.534;20.034;2023-02-01T08:38:21;17.42;;;10.52;;
53401;SDS011;39295;45.534;20.034;2023-02-01T08:40:47;22.00;;;11.82;;
53401;SDS011;39295;45.534;20.034;2023-02-01T08:43:13;89.82;;;42.42;;
53401;SDS011;39295;45.534;20.034;2023-02-01T08:45:39;19.30;;;10.80;;
53401;SDS011;39295;45.534;20.034;2023-02-01T08:48:05;16.55;;;8.43;;
53401;SDS011;39295;45.534;20.034;2023-02-01T08:50:32;23.88;;;12.30;;
53401;SDS011;39295;45.534;20.034;2023-02-01T08:52:58;21.50;;;11.90;;
53401;SDS011;39295;45.534;20.034;2023-02-01T08:55:24;15.75;;;8.00;;
53401;SDS011;39295;45.534;20.034;2023-02-01T08:57:51;18.05;;;9.38;;
53401;SDS011;39295;45.534;20.034;2023-02-01T09:00:17;26.35;;;12.40;;
53401;SDS011;39295;45.534;20.034;2023-02-01T09:02:44;23.88;;;12.10;;
53401;SDS011;39295;45.534;20.034;2023-02-01T09:05:10;21.33;;;11.93;;
53401;SDS011;39295;45.534;20.034;2023-02-01T09:07:37;25.08;;;13.57;;
53401;SDS011;39295;45.534;20.034;2023-02-01T09:10:03;24.70;;;14.43;;
53401;SDS011;39295;45.534;20.034;2023-02-01T09:12:30;21.40;;;12.18;;
53401;SDS011;39295;45.534;20.034;2023-02-01T09:14:56;21.30;;;12.75;;
53401;SDS011;39295;45.534;20.034;2023-02-01T09:17:25;25.42;;;12.95;;
53401;SDS011;39295;45.534;20.034;2023-02-01T09:19:51;26.05;;;14.00;;
53401;SDS011;39295;45.534;20.034;2023-02-01T09:22:18;40.13;;;17.30;;
53401;SDS011;39295;45.534;20.034;2023-02-01T09:24:44;53.92;;;22.52;;
53401;SDS011;39295;45.534;20.034;2023-02-01T09:27:10;53.20;;;22.15;;
53401;SDS011;39295;45.534;20.034;2023-02-01T09:29:36;66.70;;;27.48;;
53401;SDS011;39295;45.534;20.034;2023-02-01T09:32:02;88.78;;;32.83;;
53401;SDS011;39295;45.534;20.034;2023-02-01T09:34:29;96.70;;;32.85;;
53401;SDS011;39295;45.534;20.034;2023-02-01T09:36:55;106.10;;;34.15;;
53401;SDS011;39295;45.534;20.034;2023-02-01T09:39:21;81.95;;;29.38;;
53401;SDS011;39295;45.534;20.034;2023-02-01T09:46:58;34.10;;;16.83;;
53401;SDS011;39295;45.534;20.034;2023-02-01T09:49:33;34.25;;;17.70;;
53401;SDS011;39295;45.534;20.034;2023-02-01T09:52:02;51.30;;;24.80;;
53401;SDS011;39295;45.534;20.034;2023-02-01T09:54:39;35.28;;;18.05;;
53401;SDS011;39295;45.534;20.034;2023-02-01T09:57:06;62.75;;;24.50;;
53401;SDS011;39295;45.534;20.034;2023-02-01T09:59:44;70.25;;;22.77;;
53401;SDS011;39295;45.534;20.034;2023-02-01T10:02:20;51.75;;;20.63;;
53401;SDS011;39295;45.534;20.034;2023-02-01T10:04:47;62.28;;;21.20;;
53401;SDS011;39295;45.534;20.034;2023-02-01T10:07:18;43.63;;;17.58;;
53401;SDS011;39295;45.534;20.034;2023-02-01T10:25:54;52.75;;;21.85;;
53401;SDS011;39295;45.534;20.034;2023-02-01T10:28:21;31.15;;;14.98;;
53401;SDS011;39295;45.534;20.034;2023-02-01T10:30:49;32.22;;;15.10;;
53401;SDS011;39295;45.534;20.034;2023-02-01T10:35:46;34.38;;;15.65;;
53401;SDS011;39295;45.534;20.034;2023-02-01T10:38:33;30.92;;;14.52;;
53401;SDS011;39295;45.534;20.034;2023-02-01T10:41:01;35.90;;;16.40;;
53401;SDS011;39295;45.534;20.034;2023-02-01T10:43:28;36.35;;;16.67;;
53401;SDS011;39295;45.534;20.034;2023-02-01T10:45:54;44.67;;;19.55;;
53401;SDS011;39295;45.534;20.034;2023-02-01T10:48:20;41.15;;;21.10;;
53401;SDS011;39295;45.534;20.034;2023-02-01T10:50:51;56.58;;;24.60;;
53401;SDS011;39295;45.534;20.034;2023-02-01T10:53:34;55.35;;;25.05;;
53401;SDS011;39295;45.534;20.034;2023-02-01T10:56:05;57.70;;;26.23;;
53401;SDS011;39295;45.534;20.034;2023-02-01T10:58:32;55.80;;;25.92;;
53401;SDS011;39295;45.534;20.034;2023-02-01T11:00:59;40.00;;;18.15;;
53401;SDS011;39295;45.534;20.034;2023-02-01T11:03:34;37.60;;;17.58;;
53401;SDS011;39295;45.534;20.034;2023-02-01T11:06:03;46.85;;;20.85;;
53401;SDS011;39295;45.534;20.034;2023-02-01T11:08:30;34.70;;;18.17;;
53401;SDS011;39295;45.534;20.034;2023-02-01T11:10:58;22.52;;;13.02;;
53401;SDS011;39295;45.534;20.034;2023-02-01T11:13:28;22.40;;;12.88;;
53401;SDS011;39295;45.534;20.034;2023-02-01T11:15:55;30.48;;;15.43;;
53401;SDS011;39295;45.534;20.034;2023-02-01T11:18:26;22.70;;;13.82;;
53401;SDS011;39295;45.534;20.034;2023-02-01T11:20:53;30.55;;;16.33;;
53401;SDS011;39295;45.534;20.034;2023-02-01T11:23:21;44.22;;;21.63;;
53401;SDS011;39295;45.534;20.034;2023-02-01T11:25:49;29.98;;;15.07;;
53401;SDS011;39295;45.534;20.034;2023-02-01T11:28:16;29.55;;;18.02;;
53401;SDS011;39295;45.534;20.034;2023-02-01T11:30:43;21.30;;;14.30;;
53401;SDS011;39295;45.534;20.034;2023-02-01T11:33:13;20.90;;;13.35;;
53401;SDS011;39295;45.534;20.034;2023-02-01T11:35:39;30.67;;;16.63;;
53401;SDS011;39295;45.534;20.034;2023-02-01T11:38:11;29.48;;;16.10;;
53401;SDS011;39295;45.534;20.034;2023-02-01T11:40:39;21.55;;;12.82;;
53401;SDS011;39295;45.534;20.034;2023-02-01T11:43:14;23.38;;;14.32;;
53401;SDS011;39295;45.534;20.034;2023-02-01T11:45:41;23.08;;;12.15;;
53401;SDS011;39295;45.534;20.034;2023-02-01T11:48:19;28.73;;;15.50;;
53401;SDS011;39295;45.534;20.034;2023-02-01T12:06:48;24.77;;;12.73;;
53401;SDS011;39295;45.534;20.034;2023-02-01T12:32:29;20.73;;;10.73;;
53401;SDS011;39295;45.534;20.034;2023-02-01T12:40:32;17.33;;;8.80;;
53401;SDS011;39295;45.534;20.034;2023-02-01T12:45:49;23.02;;;11.95;;
53401;SDS011;39295;45.534;20.034;2023-02-01T12:50:53;23.05;;;14.00;;
53401;SDS011;39295;45.534;20.034;2023-02-01T12:53:24;20.45;;;9.88;;
53401;SDS011;39295;45.534;20.034;2023-02-01T12:55:52;30.52;;;13.40;;
53401;SDS011;39295;45.534;20.034;2023-02-01T13:00:59;35.15;;;13.65;;
53401;SDS011;39295;45.534;20.034;2023-02-01T13:06:15;32.40;;;15.15;;
53401;SDS011;39295;45.534;20.034;2023-02-01T13:08:53;34.70;;;15.80;;
53401;SDS011;39295;45.534;20.034;2023-02-01T13:11:24;24.90;;;11.75;;
53401;SDS011;39295;45.534;20.034;2023-02-01T13:16:56;28.27;;;12.38;;
53401;SDS011;39295;45.534;20.034;2023-02-01T13:22:16;37.28;;;15.90;;
53401;SDS011;39295;45.534;20.034;2023-02-01T13:24:48;32.63;;;15.65;;
53401;SDS011;39295;45.534;20.034;2023-02-01T13:27:16;45.45;;;20.33;;
53401;SDS011;39295;45.534;20.034;2023-02-01T13:29:55;29.02;;;12.80;;
53401;SDS011;39295;45.534;20.034;2023-02-01T13:32:33;30.55;;;14.82;;
53401;SDS011;39295;45.534;20.034;2023-02-01T13:42:51;50.88;;;23.10;;
53401;SDS011;39295;45.534;20.034;2023-02-01T13:45:19;63.83;;;31.38;;
53401;SDS011;39295;45.534;20.034;2023-02-01T13:47:47;111.50;;;74.85;;
53401;SDS011;39295;45.534;20.034;2023-02-01T13:50:30;50.03;;;25.10;;
53401;SDS011;39295;45.534;20.034;2023-02-01T13:55:40;71.70;;;26.77;;
53401;SDS011;39295;45.534;20.034;2023-02-01T13:58:15;78.18;;;30.25;;
53401;SDS011;39295;45.534;20.034;2023-02-01T14:00:42;65.22;;;26.80;;
53401;SDS011;39295;45.534;20.034;2023-02-01T14:10:48;35.33;;;16.02;;
53401;SDS011;39295;45.534;20.034;2023-02-01T14:13:38;28.20;;;14.65;;
53401;SDS011;39295;45.534;20.034;2023-02-01T14:26:59;25.90;;;11.85;;
53401;SDS011;39295;45.534;20.034;2023-02-01T14:32:03;22.48;;;11.73;;
53401;SDS011;39295;45.534;20.034;2023-02-01T14:37:08;29.77;;;15.60;;
53401;SDS011;39295;45.534;20.034;2023-02-01T14:39:38;110.57;;;36.60;;
53401;SDS011;39295;45.534;20.034;2023-02-01T14:42:26;57.83;;;26.45;;
53401;SDS011;39295;45.534;20.034;2023-02-01T14:44:53;238.68;;;80.80;;
53401;SDS011;39295;45.534;20.034;2023-02-01T14:49:54;83.25;;;35.08;;
53401;SDS011;39295;45.534;20.034;2023-02-01T14:52:22;300.17;;;115.57;;
53401;SDS011;39295;45.534;20.034;2023-02-01T14:54:53;450.20;;;186.43;;
53401;SDS011;39295;45.534;20.034;2023-02-01T14:57:20;344.48;;;136.60;;
53401;SDS011;39295;45.534;20.034;2023-02-01T14:59:52;222.27;;;96.85;;
53401;SDS011;39295;45.534;20.034;2023-02-01T15:04:50;65.93;;;30.77;;
53401;SDS011;39295;45.534;20.034;2023-02-01T15:07:18;78.82;;;36.45;;
53401;SDS011;39295;45.534;20.034;2023-02-01T15:09:45;66.18;;;32.90;;
53401;SDS011;39295;45.534;20.034;2023-02-01T15:17:33;103.65;;;47.75;;
53401;SDS011;39295;45.534;20.034;2023-02-01T15:20:18;55.72;;;30.55;;
53401;SDS011;39295;45.534;20.034;2023-02-01T15:22:53;64.32;;;32.60;;
53401;SDS011;39295;45.534;20.034;2023-02-01T15:25:20;77.93;;;39.15;;
53401;SDS011;39295;45.534;20.034;2023-02-01T15:27:47;310.77;;;146.98;;
53401;SDS011;39295;45.534;20.034;2023-02-01T15:30:18;144.55;;;72.97;;
53401;SDS011;39295;45.534;20.034;2023-02-01T15:32:45;156.10;;;74.35;;
53401;SDS011;39295;45.534;20.034;2023-02-01T15:35:34;132.95;;;67.07;;
53401;SDS011;39295;45.534;20.034;2023-02-01T15:46:16;284.98;;;129.10;;
53401;SDS011;39295;45.534;20.034;2023-02-01T15:48:44;305.05;;;137.20;;
53401;SDS011;39295;45.534;20.034;2023-02-01T15:51:12;288.08;;;137.63;;
53401;SDS011;39295;45.534;20.034;2023-02-01T15:53:38;254.00;;;119.43;;
53401;SDS011;39295;45.534;20.034;2023-02-01T15:56:09;224.13;;;108.85;;
53401;SDS011;39295;45.534;20.034;2023-02-01T15:58:35;305.30;;;141.05;;
53401;SDS011;39295;45.534;20.034;2023-02-01T16:01:02;279.52;;;122.13;;
53401;SDS011;39295;45.534;20.034;2023-02-01T16:06:00;369.85;;;159.40;;
53401;SDS011;39295;45.534;20.034;2023-02-01T16:08:28;221.40;;;102.13;;
53401;SDS011;39295;45.534;20.034;2023-02-01T16:10:59;199.65;;;94.85;;
53401;SDS011;39295;45.534;20.034;2023-02-01T16:13:26;160.18;;;71.85;;
53401;SDS011;39295;45.534;20.034;2023-02-01T16:15:52;149.52;;;58.88;;
53401;SDS011;39295;45.534;20.034;2023-02-01T16:18:18;28.67;;;15.32;;
53401;SDS011;39295;45.534;20.034;2023-02-01T16:20:45;35.53;;;16.60;;
53401;SDS011;39295;45.534;20.034;2023-02-01T16:23:14;32.15;;;14.25;;
53401;SDS011;39295;45.534;20.034;2023-02-01T16:25:40;34.83;;;12.85;;
53401;SDS011;39295;45.534;20.034;2023-02-01T16:28:06;24.08;;;9.73;;
53401;SDS011;39295;45.534;20.034;2023-02-01T16:30:33;12.07;;;4.90;;
53401;SDS011;39295;45.534;20.034;2023-02-01T16:33:00;15.65;;;5.93;;
53401;SDS011;39295;45.534;20.034;2023-02-01T16:35:36;15.60;;;6.68;;
53401;SDS011;39295;45.534;20.034;2023-02-01T16:38:03;15.63;;;6.45;;
53401;SDS011;39295;45.534;20.034;2023-02-01T16:40:36;31.02;;;11.40;;
53401;SDS011;39295;45.534;20.034;2023-02-01T16:43:07;25.35;;;9.43;;
53401;SDS011;39295;45.534;20.034;2023-02-01T16:45:34;30.40;;;12.57;;
53401;SDS011;39295;45.534;20.034;2023-02-01T16:48:00;42.40;;;16.63;;
53401;SDS011;39295;45.534;20.034;2023-02-01T16:50:26;20.45;;;8.43;;
53401;SDS011;39295;45.534;20.034;2023-02-01T16:52:56;23.45;;;8.55;;
53401;SDS011;39295;45.534;20.034;2023-02-01T16:55:24;13.90;;;5.35;;
53401;SDS011;39295;45.534;20.034;2023-02-01T16:57:51;13.85;;;5.78;;
53401;SDS011;39295;45.534;20.034;2023-02-01T17:00:17;40.22;;;12.23;;
53401;SDS011;39295;45.534;20.034;2023-02-01T17:02:45;19.05;;;7.95;;
53401;SDS011;39295;45.534;20.034;2023-02-01T17:05:11;23.27;;;8.52;;
53401;SDS011;39295;45.534;20.034;2023-02-01T17:07:37;29.52;;;9.70;;
53401;SDS011;39295;45.534;20.034;2023-02-01T17:16:02;32.95;;;11.80;;
53401;SDS011;39295;45.534;20.034;2023-02-01T17:18:29;22.95;;;9.00;;
53401;SDS011;39295;45.534;20.034;2023-02-01T17:20:58;15.50;;;6.30;;
53401;SDS011;39295;45.534;20.034;2023-02-01T17:23:24;13.20;;;6.38;;